createdAt,value
2022-09-01T00:01:48.912Z,100.00
2022-09-01T00:04:19.197Z,100.00
2022-09-01T00:06:48.427Z,100.00
2022-09-01T00:09:21.196Z,100.00
2022-09-01T00:11:53.764Z,100.00
2022-09-01T00:14:29.624Z,100.00
2022-09-01T00:17:01.735Z,100.00
2022-09-01T00:19:29.590Z,100.00
2022-09-01T00:21:57.228Z,100.00
2022-09-01T00:24:25.969Z,100.00
2022-09-01T00:26:53.718Z,100.00
2022-09-01T00:29:21.023Z,100.00
2022-09-01T00:31:47.860Z,100.00
2022-09-01T00:34:14.775Z,100.00
2022-09-01T00:36:41.656Z,100.00
2022-09-01T00:39:08.941Z,100.00
2022-09-01T00:41:39.676Z,100.00
2022-09-01T00:44:11.860Z,100.00
2022-09-01T00:46:54.965Z,100.00
2022-09-01T00:49:47.477Z,100.00
2022-09-01T00:52:19.404Z,100.00
2022-09-01T00:54:53.595Z,100.00
2022-09-01T00:57:21.152Z,100.00
2022-09-01T01:00:01.857Z,100.00
2022-09-01T01:02:28.529Z,100.00
2022-09-01T01:05:00.429Z,100.00
2022-09-01T01:07:28.362Z,100.00
2022-09-01T01:09:55.800Z,100.00
2022-09-01T01:12:23.674Z,100.00
2022-09-01T01:14:50.944Z,100.00
2022-09-01T01:17:23.017Z,100.00
2022-09-01T01:20:14.938Z,100.00
2022-09-01T01:23:03.367Z,100.00
2022-09-01T01:25:41.836Z,100.00
2022-09-01T01:28:11.364Z,100.00
2022-09-01T01:30:41.812Z,100.00
2022-09-01T01:33:08.781Z,100.00
2022-09-01T01:35:36.239Z,100.00
2022-09-01T01:38:04.986Z,100.00
2022-09-01T01:40:31.501Z,100.00
2022-09-01T01:42:57.985Z,100.00
2022-09-01T01:45:25.767Z,100.00
2022-09-01T01:47:53.639Z,100.00
2022-09-01T01:50:25.762Z,100.00
2022-09-01T01:52:55.194Z,100.00
2022-09-01T01:55:28.905Z,100.00
2022-09-01T01:57:58.186Z,100.00
2022-09-01T02:00:30.371Z,100.00
2022-09-01T02:02:58.571Z,100.00
2022-09-01T02:05:29.888Z,100.00
2022-09-01T02:08:01.699Z,100.00
2022-09-01T02:10:31.483Z,100.00
2022-09-01T02:13:03.835Z,100.00
2022-09-01T02:15:35.053Z,100.00
2022-09-01T02:18:05.000Z,100.00
2022-09-01T02:20:32.775Z,100.00
2022-09-01T02:23:10.467Z,100.00
2022-09-01T02:26:05.156Z,100.00
2022-09-01T02:28:37.214Z,100.00
2022-09-01T02:31:08.762Z,100.00
2022-09-01T02:33:36.501Z,100.00
2022-09-01T02:36:14.127Z,100.00
2022-09-01T02:38:45.901Z,100.00
2022-09-01T02:41:14.557Z,100.00
2022-09-01T02:43:43.484Z,100.00
2022-09-01T02:46:10.334Z,100.00
2022-09-01T02:48:38.066Z,100.00
2022-09-01T02:51:08.209Z,100.00
2022-09-01T02:53:35.891Z,100.00
2022-09-01T02:56:09.448Z,100.00
2022-09-01T02:58:45.615Z,100.00
2022-09-01T03:01:21.394Z,100.00
2022-09-01T03:03:54.267Z,100.00
2022-09-01T03:06:24.014Z,100.00
2022-09-01T03:08:52.689Z,100.00
2022-09-01T03:11:21.847Z,100.00
2022-09-01T03:13:48.323Z,100.00
2022-09-01T03:16:16.028Z,100.00
2022-09-01T03:18:43.843Z,100.00
2022-09-01T03:21:14.960Z,100.00
2022-09-01T03:23:45.255Z,100.00
2022-09-01T03:26:12.654Z,100.00
2022-09-01T03:28:40.369Z,100.00
2022-09-01T03:31:07.378Z,100.00
2022-09-01T03:33:34.393Z,100.00
2022-09-01T03:36:01.164Z,100.00
2022-09-01T03:38:27.564Z,100.00
2022-09-01T03:40:58.982Z,100.00
2022-09-01T03:43:27.771Z,100.00
2022-09-01T03:46:02.270Z,100.00
2022-09-01T03:48:32.048Z,100.00
2022-09-01T03:51:03.056Z,100.00
2022-09-01T03:53:36.652Z,100.00
2022-09-01T03:56:05.385Z,100.00
2022-09-01T03:58:33.133Z,100.00
2022-09-01T04:01:02.791Z,100.00
2022-09-01T04:03:34.439Z,100.00
2022-09-01T04:06:03.169Z,100.00
2022-09-01T04:08:33.490Z,100.00
2022-09-01T04:11:05.099Z,100.00
2022-09-01T04:13:39.152Z,100.00
2022-09-01T04:16:29.718Z,100.00
2022-09-01T04:18:56.226Z,100.00
2022-09-01T04:21:22.646Z,100.00
2022-09-01T04:23:49.112Z,100.00
2022-09-01T04:26:20.313Z,100.00
2022-09-01T04:28:50.712Z,100.00
2022-09-01T04:31:20.986Z,100.00
2022-09-01T04:33:55.214Z,100.00
2022-09-01T04:36:25.842Z,100.00
2022-09-01T04:38:56.083Z,100.00
2022-09-01T04:41:33.269Z,100.00
2022-09-01T04:44:05.845Z,100.00
2022-09-01T04:46:42.151Z,100.00
2022-09-01T04:49:13.057Z,100.00
2022-09-01T04:51:42.308Z,100.00
2022-09-01T04:54:14.137Z,100.00
2022-09-01T04:56:45.352Z,100.00
2022-09-01T04:59:17.184Z,100.00
2022-09-01T05:01:51.002Z,100.00
2022-09-01T05:04:24.342Z,100.00
2022-09-01T05:07:00.659Z,100.00
2022-09-01T05:09:37.111Z,100.00
2022-09-01T05:12:36.015Z,100.00
2022-09-01T05:15:06.419Z,100.00
2022-09-01T05:17:33.280Z,100.00
2022-09-01T05:20:00.761Z,100.00
2022-09-01T05:22:27.380Z,100.00
2022-09-01T05:25:11.716Z,100.00
2022-09-01T05:27:51.452Z,100.00
2022-09-01T05:30:19.808Z,100.00
2022-09-01T05:32:48.962Z,100.00
2022-09-01T05:35:17.287Z,100.00
2022-09-01T05:37:44.155Z,100.00
2022-09-01T05:40:16.107Z,100.00
2022-09-01T05:42:44.727Z,100.00
2022-09-01T05:45:11.901Z,100.00
2022-09-01T05:47:39.984Z,100.00
2022-09-01T05:50:14.220Z,100.00
2022-09-01T05:52:44.787Z,100.00
2022-09-01T05:55:11.620Z,100.00
2022-09-01T05:57:41.888Z,100.00
2022-09-01T06:00:13.901Z,100.00
2022-09-01T06:02:42.717Z,100.00
2022-09-01T06:05:15.133Z,100.00
2022-09-01T06:07:42.919Z,100.00
2022-09-01T06:10:10.986Z,100.00
2022-09-01T06:12:37.702Z,100.00
2022-09-01T06:15:07.131Z,100.00
2022-09-01T06:17:36.846Z,100.00
2022-09-01T06:20:10.409Z,100.00
2022-09-01T06:22:38.801Z,100.00
2022-09-01T06:25:06.637Z,100.00
2022-09-01T06:27:42.579Z,100.00
2022-09-01T06:30:20.155Z,100.00
2022-09-01T06:32:54.013Z,100.00
2022-09-01T06:35:22.160Z,100.00
2022-09-01T06:37:48.781Z,100.00
2022-09-01T06:40:41.256Z,100.00
2022-09-01T06:43:09.715Z,100.00
2022-09-01T06:45:49.883Z,100.00
2022-09-01T06:48:17.754Z,100.00
2022-09-01T06:53:34.546Z,100.00
2022-09-01T06:56:03.545Z,100.00
2022-09-01T06:58:31.122Z,100.00
2022-09-01T07:00:57.692Z,100.00
2022-09-01T07:03:25.800Z,100.00
2022-09-01T07:06:02.304Z,100.00
2022-09-01T07:14:32.902Z,100.00
2022-09-01T07:19:49.153Z,100.00
2022-09-01T07:25:17.919Z,100.00
2022-09-01T07:28:02.362Z,100.00
2022-09-01T07:30:29.016Z,100.00
2022-09-01T07:32:55.622Z,100.00
2022-09-01T07:35:24.082Z,100.00
2022-09-01T07:43:51.892Z,100.00
2022-09-01T07:46:37.426Z,100.00
2022-09-01T07:51:55.474Z,100.00
2022-09-01T07:54:23.899Z,100.00
2022-09-01T07:56:50.793Z,100.00
2022-09-01T07:59:18.253Z,100.00
2022-09-01T08:01:52.941Z,100.00
2022-09-01T08:04:22.929Z,100.00
2022-09-01T08:06:50.164Z,100.00
2022-09-01T08:09:33.004Z,100.00
2022-09-01T08:12:05.907Z,100.00
2022-09-01T08:14:37.320Z,100.00
2022-09-01T08:19:53.397Z,100.00
2022-09-01T08:22:32.533Z,100.00
2022-09-01T08:25:07.560Z,100.00
2022-09-01T08:27:38.707Z,100.00
2022-09-01T08:30:07.464Z,100.00
2022-09-01T08:32:35.616Z,100.00
2022-09-01T08:35:04.818Z,100.00
2022-09-01T08:37:31.571Z,100.00
2022-09-01T08:39:58.304Z,100.00
2022-09-01T08:42:39.953Z,100.00
2022-09-01T08:45:13.035Z,100.00
2022-09-01T08:48:04.624Z,100.00
2022-09-01T08:50:26.524Z,100.00
2022-09-01T08:53:38.298Z,100.00
2022-09-01T08:56:05.879Z,100.00
2022-09-01T08:58:32.927Z,100.00
2022-09-01T09:01:47.189Z,100.00
2022-09-01T09:04:19.780Z,100.00
2022-09-01T09:07:37.451Z,100.00
2022-09-01T09:10:14.348Z,100.00
2022-09-01T09:13:09.695Z,100.00
2022-09-01T09:15:44.595Z,100.00
2022-09-01T09:18:59.293Z,100.00
2022-09-01T09:21:32.519Z,100.00
2022-09-01T09:24:25.097Z,100.00
2022-09-01T09:26:56.785Z,100.00
2022-09-01T09:29:23.502Z,100.00
2022-09-01T09:32:02.840Z,100.00
2022-09-01T09:34:33.606Z,100.00
2022-09-01T09:37:21.713Z,100.00
2022-09-01T09:40:10.431Z,100.00
2022-09-01T09:42:42.983Z,100.00
2022-09-01T09:45:21.416Z,100.00
2022-09-01T09:47:48.516Z,100.00
2022-09-01T09:50:20.851Z,100.00
2022-09-01T09:52:49.434Z,100.00
2022-09-01T09:55:28.253Z,100.00
2022-09-01T09:58:01.627Z,100.00
2022-09-01T10:00:29.755Z,100.00
2022-09-01T10:03:07.958Z,100.00
2022-09-01T10:05:39.859Z,100.00
2022-09-01T10:08:37.207Z,100.00
2022-09-01T10:11:05.711Z,100.00
2022-09-01T10:13:36.490Z,100.00
2022-09-01T10:16:09.248Z,100.00
2022-09-01T10:18:40.877Z,100.00
2022-09-01T10:21:33.099Z,100.00
2022-09-01T10:24:17.626Z,100.00
2022-09-01T10:26:52.852Z,100.00
2022-09-01T10:29:34.821Z,100.00
2022-09-01T10:32:30.690Z,100.00
2022-09-01T10:34:59.310Z,100.00
2022-09-01T10:37:34.939Z,100.00
2022-09-01T10:40:20.603Z,100.00
2022-09-01T10:42:55.020Z,100.00
2022-09-01T10:45:33.084Z,100.00
2022-09-01T10:48:48.565Z,100.00
2022-09-01T10:51:36.401Z,100.00
2022-09-01T10:54:05.669Z,100.00
2022-09-01T10:56:44.302Z,100.00
2022-09-01T10:59:32.759Z,100.00
2022-09-01T11:02:29.446Z,100.00
2022-09-01T11:04:59.115Z,100.00
2022-09-01T11:07:58.155Z,100.00
2022-09-01T11:10:32.401Z,100.00
2022-09-01T11:13:30.012Z,100.00
2022-09-01T11:16:45.481Z,100.00
2022-09-01T11:19:46.963Z,100.00
2022-09-01T11:22:18.515Z,100.00
2022-09-01T11:25:12.560Z,100.00
2022-09-01T11:27:48.299Z,100.00
2022-09-01T11:30:35.520Z,100.00
2022-09-01T11:33:33.976Z,100.00
2022-09-01T11:36:21.592Z,100.00
2022-09-01T11:39:09.199Z,100.00
2022-09-01T11:41:40.315Z,100.00
2022-09-01T11:44:16.967Z,100.00
2022-09-01T11:46:45.611Z,100.00
2022-09-01T11:49:37.499Z,100.00
2022-09-01T11:52:05.223Z,100.00
2022-09-01T11:54:41.263Z,100.00
2022-09-01T11:57:22.513Z,100.00
2022-09-01T11:59:49.499Z,100.00
2022-09-01T12:02:23.102Z,100.00
2022-09-01T12:04:50.654Z,100.00
2022-09-01T12:07:33.862Z,100.00
2022-09-01T12:10:00.546Z,100.00
2022-09-01T12:12:30.154Z,100.00
2022-09-01T12:15:07.033Z,100.00
2022-09-01T12:17:35.360Z,100.00
2022-09-01T12:20:28.127Z,100.00
2022-09-01T12:22:55.931Z,100.00
2022-09-01T12:25:26.074Z,100.00
2022-09-01T12:27:53.303Z,100.00
2022-09-01T12:30:21.471Z,100.00
2022-09-01T12:32:48.468Z,100.00
2022-09-01T12:35:23.244Z,100.00
2022-09-01T12:37:51.759Z,100.00
2022-09-01T12:40:36.902Z,100.00
2022-09-01T12:43:03.480Z,100.00
2022-09-01T12:45:47.814Z,100.00
2022-09-01T12:48:49.500Z,100.00
2022-09-01T12:51:24.545Z,100.00
2022-09-01T12:53:58.595Z,100.00
2022-09-01T12:56:31.539Z,100.00
2022-09-01T12:59:17.208Z,100.00
2022-09-01T13:01:44.951Z,100.00
2022-09-01T13:04:22.567Z,100.00
2022-09-01T13:06:50.315Z,100.00
2022-09-01T13:09:17.714Z,100.00
2022-09-01T13:14:33.946Z,100.00
2022-09-01T13:17:01.171Z,100.00
2022-09-01T13:19:30.530Z,100.00
2022-09-01T13:21:57.569Z,100.00
2022-09-01T13:24:28.082Z,100.00
2022-09-01T13:29:43.717Z,100.00
2022-09-01T13:32:17.968Z,100.00
2022-09-01T13:34:46.414Z,100.00
2022-09-01T13:37:12.880Z,100.00
2022-09-01T13:39:39.335Z,100.00
2022-09-01T13:42:06.483Z,100.00
2022-09-01T13:44:35.278Z,100.00
2022-09-01T13:47:28.618Z,100.00
2022-09-01T13:52:35.147Z,100.00
2022-09-01T13:55:01.734Z,100.00
2022-09-01T13:57:28.187Z,100.00
2022-09-01T14:00:03.969Z,100.00
2022-09-01T14:02:40.994Z,100.00
2022-09-01T14:05:08.091Z,100.00
2022-09-01T14:07:34.736Z,100.00
2022-09-01T14:10:01.671Z,100.00
2022-09-01T14:12:28.485Z,100.00
2022-09-01T14:15:12.107Z,100.00
2022-09-01T14:17:41.193Z,100.00
2022-09-01T14:20:12.844Z,100.00
2022-09-01T14:22:40.840Z,100.00
2022-09-01T14:26:34.977Z,53.72
2022-09-01T14:29:02.758Z,58.02
2022-09-01T14:31:29.686Z,58.90
2022-09-01T14:33:56.294Z,59.96
2022-09-01T14:36:25.080Z,59.81
2022-09-01T14:38:52.738Z,56.87
2022-09-01T14:41:27.093Z,53.55
2022-09-01T14:43:57.604Z,47.97
2022-09-01T14:46:26.737Z,45.04
2022-09-01T14:48:53.288Z,44.30
2022-09-01T14:54:17.744Z,41.46
2022-09-01T14:57:28.147Z,43.37
2022-09-01T14:59:31.040Z,42.90
2022-09-01T15:01:57.563Z,43.01
2022-09-01T15:04:24.202Z,42.61
2022-09-01T15:06:51.102Z,42.09
2022-09-01T15:09:19.193Z,41.28
2022-09-01T15:11:46.395Z,42.22
2022-09-01T15:14:13.111Z,45.47
2022-09-01T15:16:41.359Z,47.33
2022-09-01T15:19:10.903Z,50.27
2022-09-01T15:21:38.822Z,50.58
2022-09-01T15:24:07.264Z,48.39
2022-09-01T15:26:34.419Z,52.83
2022-09-01T15:29:04.476Z,55.11
2022-09-01T15:31:33.524Z,57.49
2022-09-01T15:34:02.175Z,56.82
2022-09-01T15:36:29.751Z,56.27
2022-09-01T15:38:57.639Z,54.98
2022-09-01T15:41:27.494Z,53.87
2022-09-01T15:43:54.817Z,50.56
2022-09-01T15:46:21.757Z,49.25
2022-09-01T15:48:48.348Z,47.47
2022-09-01T15:51:24.091Z,44.75
2022-09-01T15:53:52.440Z,43.47
2022-09-01T15:56:18.897Z,42.29
2022-09-01T15:59:04.915Z,38.81
2022-09-01T16:01:34.395Z,39.65
2022-09-01T16:04:01.367Z,40.76
2022-09-01T16:06:28.203Z,39.32
2022-09-01T16:08:55.410Z,39.08
2022-09-01T16:11:23.536Z,40.79
2022-09-01T16:13:54.755Z,41.29
2022-09-01T16:16:57.590Z,41.92
2022-09-01T16:19:33.343Z,42.87
2022-09-01T16:22:12.057Z,41.92
2022-09-01T16:24:47.712Z,43.76
2022-09-01T16:27:17.866Z,42.59
2022-09-01T16:29:49.069Z,42.94
2022-09-01T16:32:16.221Z,45.11
2022-09-01T16:34:46.905Z,44.71
2022-09-01T16:37:36.894Z,45.06
2022-09-01T16:40:24.817Z,44.64
2022-09-01T16:43:16.223Z,45.99
2022-09-01T16:46:04.094Z,45.54
2022-09-01T16:48:47.091Z,46.29
2022-09-01T16:51:26.500Z,47.18
2022-09-01T16:54:10.201Z,47.28
2022-09-01T16:56:48.929Z,48.20
2022-09-01T16:59:31.309Z,49.19
2022-09-01T17:02:06.814Z,51.23
2022-09-01T17:04:42.663Z,51.97
2022-09-01T17:07:29.687Z,52.01
2022-09-01T17:10:12.411Z,54.24
2022-09-01T17:12:46.872Z,55.37
2022-09-01T17:15:18.203Z,54.86
2022-09-01T17:17:53.226Z,57.23
2022-09-01T17:20:23.993Z,58.61
2022-09-01T17:22:53.547Z,59.17
2022-09-01T17:25:37.555Z,59.52
2022-09-01T17:28:15.392Z,55.91
2022-09-01T17:30:53.002Z,55.72
2022-09-01T17:33:33.519Z,57.24
2022-09-01T17:36:10.323Z,54.23
2022-09-01T17:38:51.390Z,57.79
2022-09-01T17:41:30.132Z,59.43
2022-09-01T17:44:12.761Z,60.76
2022-09-01T17:46:42.242Z,61.09
2022-09-01T17:49:46.132Z,62.42
2022-09-01T17:52:37.681Z,64.74
2022-09-01T17:55:21.958Z,64.91
2022-09-01T17:58:12.040Z,66.52
2022-09-01T18:01:01.708Z,69.09
2022-09-01T18:03:45.900Z,69.04
2022-09-01T18:06:27.236Z,69.97
2022-09-01T18:08:58.280Z,63.31
2022-09-01T18:11:50.994Z,63.46
2022-09-01T18:15:08.660Z,66.29
2022-09-01T18:17:41.527Z,65.93
2022-09-01T18:20:12.071Z,68.84
2022-09-01T18:22:44.507Z,67.04
2022-09-01T18:25:23.320Z,69.25
2022-09-01T18:27:50.316Z,68.01
2022-09-01T18:30:36.246Z,70.57
2022-09-01T18:33:19.482Z,70.76
2022-09-01T18:36:21.300Z,72.18
2022-09-01T18:38:55.668Z,71.09
2022-09-01T18:41:48.691Z,72.35
2022-09-01T18:44:46.943Z,72.07
2022-09-01T18:47:16.266Z,71.41
2022-09-01T18:50:15.331Z,72.33
2022-09-01T18:52:55.165Z,72.91
2022-09-01T18:55:28.001Z,74.21
2022-09-01T18:58:06.477Z,71.77
2022-09-01T19:00:56.841Z,77.56
2022-09-01T19:03:35.394Z,76.04
2022-09-01T19:06:29.563Z,74.92
2022-09-01T19:09:14.364Z,73.81
2022-09-01T19:12:05.724Z,75.57
2022-09-01T19:14:47.683Z,78.46
2022-09-01T19:17:17.214Z,76.13
2022-09-01T19:19:54.251Z,76.90
2022-09-01T19:22:31.875Z,76.53
2022-09-01T19:25:26.271Z,76.45
2022-09-01T19:28:16.977Z,79.25
2022-09-01T19:30:51.668Z,79.62
2022-09-01T19:33:25.587Z,80.43
2022-09-01T19:35:57.561Z,81.27
2022-09-01T19:38:27.886Z,81.90
2022-09-01T19:41:17.996Z,81.28
2022-09-01T19:43:44.653Z,80.94
2022-09-01T19:46:26.301Z,82.46
2022-09-01T19:49:10.439Z,80.53
2022-09-01T19:51:51.157Z,82.41
2022-09-01T19:54:28.597Z,82.85
2022-09-01T19:57:02.534Z,81.77
2022-09-01T19:59:46.809Z,79.25
2022-09-01T20:02:36.097Z,80.59
2022-09-01T20:05:31.252Z,78.38
2022-09-01T20:08:08.272Z,77.07
2022-09-01T20:10:37.698Z,76.48
2022-09-01T20:13:09.991Z,73.72
2022-09-01T20:16:09.243Z,72.56
2022-09-01T20:18:49.687Z,72.25
2022-09-01T20:21:21.375Z,74.83
2022-09-01T20:24:02.806Z,72.79
2022-09-01T20:27:06.090Z,71.78
2022-09-01T20:29:46.591Z,71.62
2022-09-01T20:32:17.944Z,70.92
2022-09-01T20:34:54.919Z,70.65
2022-09-01T20:37:28.460Z,70.04
2022-09-01T20:40:01.794Z,70.19
2022-09-01T20:42:48.423Z,72.25
2022-09-01T20:45:22.010Z,72.68
2022-09-01T20:47:58.378Z,70.57
2022-09-01T20:50:53.944Z,69.79
2022-09-01T20:53:29.334Z,69.63
2022-09-01T20:56:06.464Z,69.57
2022-09-01T20:58:45.468Z,70.58
2022-09-01T21:01:36.201Z,70.52
2022-09-01T21:04:13.505Z,68.29
2022-09-01T21:07:13.719Z,68.41
2022-09-01T21:09:53.988Z,69.13
2022-09-01T21:12:33.218Z,70.25
2022-09-01T21:15:08.456Z,70.36
2022-09-01T21:17:49.920Z,69.56
2022-09-01T21:20:30.750Z,69.26
2022-09-01T21:22:57.506Z,68.95
2022-09-01T21:25:24.043Z,70.53
2022-09-01T21:27:55.727Z,69.83
2022-09-01T21:30:23.999Z,70.18
2022-09-01T21:32:53.695Z,69.91
2022-09-01T21:35:21.912Z,69.34
2022-09-01T21:37:48.815Z,71.73
2022-09-01T21:40:16.726Z,72.14
2022-09-01T21:42:54.472Z,71.20
2022-09-01T21:45:22.175Z,70.32
2022-09-01T21:47:50.119Z,69.86
2022-09-01T21:50:19.079Z,72.83
2022-09-01T21:52:45.521Z,72.11
2022-09-01T21:55:12.450Z,69.37
2022-09-01T21:57:39.143Z,68.35
2022-09-01T22:00:20.064Z,71.02
2022-09-01T22:02:47.043Z,74.13
2022-09-01T22:05:14.107Z,75.87
2022-09-01T22:07:43.170Z,73.40
2022-09-01T22:10:13.180Z,74.19
2022-09-01T22:12:42.261Z,73.26
2022-09-01T22:15:11.029Z,72.84
2022-09-01T22:17:37.618Z,72.93
2022-09-01T22:20:06.648Z,75.81
2022-09-01T22:22:33.948Z,74.89
2022-09-01T22:25:05.608Z,76.30
2022-09-01T22:27:32.183Z,76.85
2022-09-01T22:29:58.510Z,78.55
2022-09-01T22:32:26.920Z,81.03
2022-09-01T22:34:56.321Z,81.90
2022-09-01T22:37:23.004Z,82.68
2022-09-01T22:39:49.735Z,77.44
2022-09-01T22:42:16.189Z,79.53
2022-09-01T22:44:42.518Z,80.10
2022-09-01T22:47:08.956Z,79.36
2022-09-01T22:49:35.366Z,81.77
2022-09-01T22:52:01.937Z,82.32
2022-09-01T22:54:28.702Z,81.70
2022-09-01T22:56:56.297Z,83.37
2022-09-01T22:59:25.855Z,81.94
2022-09-01T23:01:52.986Z,87.03
2022-09-01T23:04:19.567Z,86.62
2022-09-01T23:06:47.492Z,86.26
2022-09-01T23:09:15.272Z,86.37
2022-09-01T23:11:42.704Z,87.06
2022-09-01T23:14:09.167Z,82.61
2022-09-01T23:16:35.801Z,87.59
2022-09-01T23:19:02.763Z,88.71
2022-09-01T23:21:32.928Z,88.48
2022-09-01T23:24:00.216Z,89.55
2022-09-01T23:26:28.256Z,90.51
2022-09-01T23:28:55.394Z,90.89
2022-09-01T23:31:24.882Z,91.45
2022-09-01T23:33:51.718Z,91.89
2022-09-01T23:36:20.946Z,91.24
2022-09-01T23:38:48.546Z,93.45
2022-09-01T23:41:18.030Z,92.94
2022-09-01T23:43:44.899Z,93.84
2022-09-01T23:46:26.403Z,93.72
2022-09-01T23:48:53.495Z,94.36
2022-09-01T23:51:20.892Z,95.71
2022-09-01T23:53:48.355Z,95.20
2022-09-01T23:56:17.938Z,96.62
2022-09-01T23:58:44.451Z,95.64
